sensor_id;sensor_type;location;lat;lon;timestamp;P1;durP1;ratioP1;P2;durP2;ratioP2
66601;SDS011;53459;51.828;7.872;2022-08-19T00:01:38;13.45;;;8.63;;
66601;SDS011;53459;51.828;7.872;2022-08-19T00:04:07;13.80;;;8.77;;
66601;SDS011;53459;51.828;7.872;2022-08-19T00:06:37;13.85;;;8.80;;
66601;SDS011;53459;51.828;7.872;2022-08-19T00:09:05;13.10;;;8.37;;
66601;SDS011;53459;51.828;7.872;2022-08-19T00:11:33;13.07;;;8.70;;
66601;SDS011;53459;51.828;7.872;2022-08-19T00:14:36;16.92;;;11.07;;
66601;SDS011;53459;51.828;7.872;2022-08-19T00:17:04;15.93;;;11.00;;
66601;SDS011;53459;51.828;7.872;2022-08-19T00:19:31;16.45;;;10.23;;
66601;SDS011;53459;51.828;7.872;2022-08-19T00:23:46;17.95;;;12.00;;
66601;SDS011;53459;51.828;7.872;2022-08-19T00:26:11;18.10;;;10.65;;
66601;SDS011;53459;51.828;7.872;2022-08-19T00:28:37;18.73;;;11.03;;
66601;SDS011;53459;51.828;7.872;2022-08-19T00:31:04;15.55;;;9.00;;
66601;SDS011;53459;51.828;7.872;2022-08-19T00:33:31;14.07;;;8.90;;
66601;SDS011;53459;51.828;7.872;2022-08-19T00:36:00;16.05;;;9.27;;
66601;SDS011;53459;51.828;7.872;2022-08-19T00:38:29;15.20;;;10.23;;
66601;SDS011;53459;51.828;7.872;2022-08-19T00:40:54;15.10;;;9.98;;
66601;SDS011;53459;51.828;7.872;2022-08-19T00:45:14;18.73;;;11.25;;
66601;SDS011;53459;51.828;7.872;2022-08-19T00:47:50;17.25;;;10.48;;
66601;SDS011;53459;51.828;7.872;2022-08-19T00:50:17;17.80;;;10.90;;
66601;SDS011;53459;51.828;7.872;2022-08-19T00:52:46;18.27;;;11.30;;
66601;SDS011;53459;51.828;7.872;2022-08-19T00:55:18;17.23;;;11.02;;
66601;SDS011;53459;51.828;7.872;2022-08-19T00:57:47;17.33;;;11.37;;
66601;SDS011;53459;51.828;7.872;2022-08-19T01:00:18;18.10;;;11.43;;
66601;SDS011;53459;51.828;7.872;2022-08-19T01:02:44;18.38;;;11.32;;
66601;SDS011;53459;51.828;7.872;2022-08-19T01:05:12;16.38;;;10.77;;
66601;SDS011;53459;51.828;7.872;2022-08-19T01:07:50;15.85;;;10.18;;
66601;SDS011;53459;51.828;7.872;2022-08-19T01:10:20;16.05;;;10.30;;
66601;SDS011;53459;51.828;7.872;2022-08-19T01:14:59;17.50;;;10.82;;
66601;SDS011;53459;51.828;7.872;2022-08-19T01:17:25;19.55;;;10.88;;
66601;SDS011;53459;51.828;7.872;2022-08-19T01:19:52;13.40;;;8.45;;
66601;SDS011;53459;51.828;7.872;2022-08-19T01:24:49;16.07;;;9.77;;
66601;SDS011;53459;51.828;7.872;2022-08-19T01:27:16;17.57;;;10.10;;
66601;SDS011;53459;51.828;7.872;2022-08-19T01:29:52;17.25;;;11.13;;
66601;SDS011;53459;51.828;7.872;2022-08-19T01:32:18;17.52;;;11.57;;
66601;SDS011;53459;51.828;7.872;2022-08-19T01:34:45;17.10;;;11.50;;
66601;SDS011;53459;51.828;7.872;2022-08-19T01:37:12;18.70;;;12.07;;
66601;SDS011;53459;51.828;7.872;2022-08-19T01:39:39;17.97;;;11.50;;
66601;SDS011;53459;51.828;7.872;2022-08-19T01:42:07;17.52;;;11.18;;
66601;SDS011;53459;51.828;7.872;2022-08-19T01:44:38;16.15;;;10.63;;
66601;SDS011;53459;51.828;7.872;2022-08-19T01:47:06;16.33;;;10.53;;
66601;SDS011;53459;51.828;7.872;2022-08-19T01:49:34;16.88;;;9.73;;
66601;SDS011;53459;51.828;7.872;2022-08-19T01:52:00;15.18;;;9.90;;
66601;SDS011;53459;51.828;7.872;2022-08-19T01:54:26;17.50;;;10.20;;
66601;SDS011;53459;51.828;7.872;2022-08-19T01:57:00;18.65;;;12.05;;
66601;SDS011;53459;51.828;7.872;2022-08-19T01:59:34;15.65;;;10.27;;
66601;SDS011;53459;51.828;7.872;2022-08-19T02:02:01;18.85;;;11.32;;
66601;SDS011;53459;51.828;7.872;2022-08-19T02:04:32;17.83;;;11.13;;
66601;SDS011;53459;51.828;7.872;2022-08-19T02:06:59;17.75;;;10.80;;
66601;SDS011;53459;51.828;7.872;2022-08-19T02:09:25;15.32;;;10.00;;
66601;SDS011;53459;51.828;7.872;2022-08-19T02:11:51;17.02;;;11.32;;
66601;SDS011;53459;51.828;7.872;2022-08-19T02:14:17;17.65;;;11.25;;
66601;SDS011;53459;51.828;7.872;2022-08-19T02:16:43;17.60;;;9.67;;
66601;SDS011;53459;51.828;7.872;2022-08-19T02:25:04;16.15;;;10.38;;
66601;SDS011;53459;51.828;7.872;2022-08-19T02:30:31;15.90;;;10.52;;
66601;SDS011;53459;51.828;7.872;2022-08-19T02:32:57;16.98;;;10.18;;
66601;SDS011;53459;51.828;7.872;2022-08-19T02:35:26;19.45;;;10.85;;
66601;SDS011;53459;51.828;7.872;2022-08-19T02:37:52;17.15;;;10.30;;
66601;SDS011;53459;51.828;7.872;2022-08-19T02:40:36;19.30;;;12.10;;
66601;SDS011;53459;51.828;7.872;2022-08-19T02:43:02;18.38;;;11.80;;
66601;SDS011;53459;51.828;7.872;2022-08-19T02:45:38;18.60;;;11.80;;
66601;SDS011;53459;51.828;7.872;2022-08-19T02:48:07;17.13;;;10.70;;
66601;SDS011;53459;51.828;7.872;2022-08-19T02:53:26;18.15;;;10.57;;
66601;SDS011;53459;51.828;7.872;2022-08-19T02:55:53;16.83;;;10.77;;
66601;SDS011;53459;51.828;7.872;2022-08-19T02:58:19;19.35;;;11.18;;
66601;SDS011;53459;51.828;7.872;2022-08-19T03:00:48;19.05;;;11.25;;
66601;SDS011;53459;51.828;7.872;2022-08-19T03:03:15;18.33;;;10.82;;
66601;SDS011;53459;51.828;7.872;2022-08-19T03:05:42;18.67;;;11.32;;
66601;SDS011;53459;51.828;7.872;2022-08-19T03:08:08;20.08;;;10.85;;
66601;SDS011;53459;51.828;7.872;2022-08-19T03:10:58;17.40;;;11.10;;
66601;SDS011;53459;51.828;7.872;2022-08-19T03:13:24;19.58;;;12.32;;
66601;SDS011;53459;51.828;7.872;2022-08-19T03:16:03;18.80;;;12.17;;
66601;SDS011;53459;51.828;7.872;2022-08-19T03:18:30;19.70;;;12.20;;
66601;SDS011;53459;51.828;7.872;2022-08-19T03:23:16;19.13;;;11.82;;
66601;SDS011;53459;51.828;7.872;2022-08-19T03:27:32;19.60;;;12.45;;
66601;SDS011;53459;51.828;7.872;2022-08-19T03:29:59;19.65;;;11.93;;
66601;SDS011;53459;51.828;7.872;2022-08-19T03:32:25;21.45;;;12.32;;
66601;SDS011;53459;51.828;7.872;2022-08-19T03:36:59;19.17;;;11.70;;
66601;SDS011;53459;51.828;7.872;2022-08-19T03:39:28;19.27;;;11.90;;
66601;SDS011;53459;51.828;7.872;2022-08-19T03:41:55;19.40;;;11.87;;
66601;SDS011;53459;51.828;7.872;2022-08-19T03:44:23;18.50;;;12.07;;
66601;SDS011;53459;51.828;7.872;2022-08-19T03:47:13;21.17;;;12.40;;
66601;SDS011;53459;51.828;7.872;2022-08-19T03:49:42;21.05;;;12.40;;
66601;SDS011;53459;51.828;7.872;2022-08-19T03:52:08;21.45;;;12.65;;
66601;SDS011;53459;51.828;7.872;2022-08-19T03:58:32;19.48;;;11.98;;
66601;SDS011;53459;51.828;7.872;2022-08-19T04:01:06;21.88;;;12.65;;
66601;SDS011;53459;51.828;7.872;2022-08-19T04:06:57;20.13;;;11.90;;
66601;SDS011;53459;51.828;7.872;2022-08-19T04:09:33;18.88;;;11.98;;
66601;SDS011;53459;51.828;7.872;2022-08-19T04:15:22;19.63;;;11.90;;
66601;SDS011;53459;51.828;7.872;2022-08-19T04:17:47;21.38;;;12.90;;
66601;SDS011;53459;51.828;7.872;2022-08-19T04:20:13;22.75;;;13.93;;
66601;SDS011;53459;51.828;7.872;2022-08-19T04:22:39;22.48;;;12.82;;
66601;SDS011;53459;51.828;7.872;2022-08-19T04:25:11;22.03;;;13.87;;
66601;SDS011;53459;51.828;7.872;2022-08-19T04:27:39;23.63;;;14.25;;
66601;SDS011;53459;51.828;7.872;2022-08-19T04:30:11;24.58;;;14.18;;
66601;SDS011;53459;51.828;7.872;2022-08-19T04:32:52;20.55;;;12.52;;
66601;SDS011;53459;51.828;7.872;2022-08-19T04:35:18;21.77;;;13.23;;
66601;SDS011;53459;51.828;7.872;2022-08-19T04:38:03;21.58;;;13.32;;
66601;SDS011;53459;51.828;7.872;2022-08-19T04:40:50;20.15;;;12.50;;
66601;SDS011;53459;51.828;7.872;2022-08-19T04:43:35;20.77;;;12.90;;
66601;SDS011;53459;51.828;7.872;2022-08-19T04:46:40;20.95;;;12.45;;
66601;SDS011;53459;51.828;7.872;2022-08-19T04:52:16;21.30;;;12.55;;
66601;SDS011;53459;51.828;7.872;2022-08-19T04:54:41;23.50;;;13.83;;
66601;SDS011;53459;51.828;7.872;2022-08-19T04:57:08;25.60;;;14.10;;
66601;SDS011;53459;51.828;7.872;2022-08-19T04:59:56;23.13;;;13.65;;
66601;SDS011;53459;51.828;7.872;2022-08-19T05:05:48;24.20;;;13.63;;
66601;SDS011;53459;51.828;7.872;2022-08-19T05:08:15;21.48;;;13.35;;
66601;SDS011;53459;51.828;7.872;2022-08-19T05:10:45;22.15;;;12.95;;
66601;SDS011;53459;51.828;7.872;2022-08-19T05:13:15;19.85;;;12.43;;
66601;SDS011;53459;51.828;7.872;2022-08-19T05:15:42;22.80;;;13.10;;
66601;SDS011;53459;51.828;7.872;2022-08-19T05:18:09;19.67;;;12.68;;
66601;SDS011;53459;51.828;7.872;2022-08-19T05:20:56;18.47;;;11.43;;
66601;SDS011;53459;51.828;7.872;2022-08-19T05:23:40;20.52;;;12.63;;
66601;SDS011;53459;51.828;7.872;2022-08-19T05:26:06;20.93;;;12.60;;
66601;SDS011;53459;51.828;7.872;2022-08-19T05:28:34;21.40;;;12.90;;
66601;SDS011;53459;51.828;7.872;2022-08-19T05:31:19;22.50;;;13.13;;
66601;SDS011;53459;51.828;7.872;2022-08-19T05:33:45;20.97;;;13.30;;
66601;SDS011;53459;51.828;7.872;2022-08-19T05:38:54;23.33;;;14.10;;
66601;SDS011;53459;51.828;7.872;2022-08-19T05:41:23;24.63;;;14.75;;
66601;SDS011;53459;51.828;7.872;2022-08-19T05:43:55;25.30;;;15.10;;
66601;SDS011;53459;51.828;7.872;2022-08-19T05:46:24;24.63;;;14.82;;
66601;SDS011;53459;51.828;7.872;2022-08-19T05:48:50;23.48;;;13.52;;
66601;SDS011;53459;51.828;7.872;2022-08-19T05:51:16;23.05;;;14.95;;
66601;SDS011;53459;51.828;7.872;2022-08-19T05:53:59;21.13;;;13.32;;
66601;SDS011;53459;51.828;7.872;2022-08-19T05:56:25;23.43;;;14.33;;
66601;SDS011;53459;51.828;7.872;2022-08-19T05:58:51;22.33;;;13.70;;
66601;SDS011;53459;51.828;7.872;2022-08-19T06:01:19;21.40;;;14.25;;
66601;SDS011;53459;51.828;7.872;2022-08-19T06:03:45;24.13;;;15.30;;
66601;SDS011;53459;51.828;7.872;2022-08-19T06:06:13;26.67;;;16.20;;
66601;SDS011;53459;51.828;7.872;2022-08-19T06:08:40;24.10;;;15.23;;
66601;SDS011;53459;51.828;7.872;2022-08-19T06:11:15;28.85;;;16.27;;
66601;SDS011;53459;51.828;7.872;2022-08-19T06:13:44;25.97;;;16.27;;
66601;SDS011;53459;51.828;7.872;2022-08-19T06:16:13;24.88;;;15.85;;
66601;SDS011;53459;51.828;7.872;2022-08-19T06:19:12;23.52;;;14.75;;
66601;SDS011;53459;51.828;7.872;2022-08-19T06:21:41;24.83;;;15.15;;
66601;SDS011;53459;51.828;7.872;2022-08-19T06:26:28;28.25;;;16.00;;
66601;SDS011;53459;51.828;7.872;2022-08-19T06:30:36;28.20;;;16.90;;
66601;SDS011;53459;51.828;7.872;2022-08-19T06:33:02;25.03;;;15.33;;
66601;SDS011;53459;51.828;7.872;2022-08-19T06:35:27;27.95;;;16.70;;
66601;SDS011;53459;51.828;7.872;2022-08-19T06:37:54;28.15;;;15.93;;
66601;SDS011;53459;51.828;7.872;2022-08-19T06:40:20;25.15;;;14.90;;
66601;SDS011;53459;51.828;7.872;2022-08-19T06:43:06;25.25;;;14.55;;
66601;SDS011;53459;51.828;7.872;2022-08-19T06:45:32;23.67;;;13.82;;
66601;SDS011;53459;51.828;7.872;2022-08-19T06:50:00;25.27;;;14.10;;
66601;SDS011;53459;51.828;7.872;2022-08-19T06:52:31;26.00;;;14.20;;
66601;SDS011;53459;51.828;7.872;2022-08-19T06:54:59;26.53;;;14.47;;
66601;SDS011;53459;51.828;7.872;2022-08-19T06:57:25;23.90;;;14.02;;
66601;SDS011;53459;51.828;7.872;2022-08-19T06:59:51;22.50;;;13.73;;
66601;SDS011;53459;51.828;7.872;2022-08-19T07:02:17;23.93;;;14.17;;
66601;SDS011;53459;51.828;7.872;2022-08-19T07:04:43;26.27;;;14.50;;
66601;SDS011;53459;51.828;7.872;2022-08-19T07:08:08;25.45;;;14.18;;
66601;SDS011;53459;51.828;7.872;2022-08-19T07:10:34;23.80;;;14.20;;
66601;SDS011;53459;51.828;7.872;2022-08-19T07:13:02;27.10;;;14.65;;
66601;SDS011;53459;51.828;7.872;2022-08-19T07:15:29;27.05;;;14.68;;
66601;SDS011;53459;51.828;7.872;2022-08-19T07:18:23;24.58;;;13.80;;
66601;SDS011;53459;51.828;7.872;2022-08-19T07:20:49;25.00;;;13.95;;
66601;SDS011;53459;51.828;7.872;2022-08-19T07:23:14;23.67;;;13.87;;
66601;SDS011;53459;51.828;7.872;2022-08-19T07:25:40;22.67;;;13.25;;
66601;SDS011;53459;51.828;7.872;2022-08-19T07:28:06;26.70;;;14.52;;
66601;SDS011;53459;51.828;7.872;2022-08-19T07:30:37;26.55;;;14.02;;
66601;SDS011;53459;51.828;7.872;2022-08-19T07:33:03;25.80;;;14.40;;
66601;SDS011;53459;51.828;7.872;2022-08-19T07:35:29;22.75;;;13.68;;
66601;SDS011;53459;51.828;7.872;2022-08-19T07:37:57;23.50;;;13.60;;
66601;SDS011;53459;51.828;7.872;2022-08-19T07:40:23;21.98;;;13.60;;
66601;SDS011;53459;51.828;7.872;2022-08-19T07:42:49;23.90;;;13.65;;
66601;SDS011;53459;51.828;7.872;2022-08-19T07:45:15;22.53;;;13.07;;
66601;SDS011;53459;51.828;7.872;2022-08-19T07:47:41;23.50;;;13.18;;
66601;SDS011;53459;51.828;7.872;2022-08-19T07:50:08;20.20;;;12.23;;
66601;SDS011;53459;51.828;7.872;2022-08-19T07:52:36;24.42;;;13.85;;
66601;SDS011;53459;51.828;7.872;2022-08-19T07:55:04;23.30;;;12.68;;
66601;SDS011;53459;51.828;7.872;2022-08-19T07:57:32;20.95;;;12.10;;
66601;SDS011;53459;51.828;7.872;2022-08-19T07:59:58;20.30;;;11.90;;
66601;SDS011;53459;51.828;7.872;2022-08-19T08:02:23;21.30;;;11.95;;
66601;SDS011;53459;51.828;7.872;2022-08-19T08:04:49;20.67;;;12.02;;
66601;SDS011;53459;51.828;7.872;2022-08-19T08:07:44;20.27;;;11.88;;
66601;SDS011;53459;51.828;7.872;2022-08-19T08:10:28;21.33;;;12.50;;
66601;SDS011;53459;51.828;7.872;2022-08-19T08:12:54;22.45;;;12.07;;
66601;SDS011;53459;51.828;7.872;2022-08-19T08:15:20;18.70;;;11.50;;
66601;SDS011;53459;51.828;7.872;2022-08-19T08:17:46;19.27;;;11.27;;
66601;SDS011;53459;51.828;7.872;2022-08-19T08:20:12;18.88;;;10.90;;
66601;SDS011;53459;51.828;7.872;2022-08-19T08:22:42;18.90;;;11.02;;
66601;SDS011;53459;51.828;7.872;2022-08-19T08:25:28;17.63;;;10.68;;
66601;SDS011;53459;51.828;7.872;2022-08-19T08:27:54;18.23;;;10.43;;
66601;SDS011;53459;51.828;7.872;2022-08-19T08:30:22;20.13;;;10.55;;
66601;SDS011;53459;51.828;7.872;2022-08-19T08:32:49;16.67;;;9.00;;
66601;SDS011;53459;51.828;7.872;2022-08-19T08:35:16;15.40;;;9.00;;
66601;SDS011;53459;51.828;7.872;2022-08-19T08:37:44;16.27;;;9.10;;
66601;SDS011;53459;51.828;7.872;2022-08-19T08:42:50;14.68;;;8.95;;
66601;SDS011;53459;51.828;7.872;2022-08-19T08:45:21;17.70;;;8.93;;
66601;SDS011;53459;51.828;7.872;2022-08-19T08:49:54;13.48;;;8.40;;
66601;SDS011;53459;51.828;7.872;2022-08-19T08:52:25;16.58;;;8.30;;
66601;SDS011;53459;51.828;7.872;2022-08-19T08:54:55;14.18;;;8.18;;
66601;SDS011;53459;51.828;7.872;2022-08-19T08:57:27;12.30;;;7.15;;
66601;SDS011;53459;51.828;7.872;2022-08-19T08:59:57;10.85;;;6.18;;
66601;SDS011;53459;51.828;7.872;2022-08-19T09:05:08;9.95;;;5.88;;
66601;SDS011;53459;51.828;7.872;2022-08-19T09:15:04;10.48;;;6.20;;
66601;SDS011;53459;51.828;7.872;2022-08-19T09:17:34;10.18;;;5.97;;
66601;SDS011;53459;51.828;7.872;2022-08-19T09:20:02;10.33;;;6.47;;
66601;SDS011;53459;51.828;7.872;2022-08-19T09:22:37;9.50;;;5.97;;
66601;SDS011;53459;51.828;7.872;2022-08-19T09:25:04;9.18;;;5.93;;
66601;SDS011;53459;51.828;7.872;2022-08-19T09:27:32;9.05;;;5.80;;
66601;SDS011;53459;51.828;7.872;2022-08-19T09:29:58;10.23;;;6.20;;
66601;SDS011;53459;51.828;7.872;2022-08-19T09:32:24;11.40;;;6.90;;
66601;SDS011;53459;51.828;7.872;2022-08-19T09:34:51;11.23;;;6.47;;
66601;SDS011;53459;51.828;7.872;2022-08-19T09:37:19;9.37;;;5.30;;
66601;SDS011;53459;51.828;7.872;2022-08-19T09:39:46;7.30;;;4.47;;
66601;SDS011;53459;51.828;7.872;2022-08-19T09:42:12;8.17;;;4.90;;
66601;SDS011;53459;51.828;7.872;2022-08-19T09:44:39;8.23;;;4.80;;
66601;SDS011;53459;51.828;7.872;2022-08-19T09:48:36;7.55;;;4.93;;
66601;SDS011;53459;51.828;7.872;2022-08-19T09:51:06;7.95;;;4.07;;
66601;SDS011;53459;51.828;7.872;2022-08-19T09:54:30;7.60;;;4.28;;
66601;SDS011;53459;51.828;7.872;2022-08-19T09:56:57;6.50;;;3.90;;
66601;SDS011;53459;51.828;7.872;2022-08-19T09:59:25;8.07;;;4.90;;
66601;SDS011;53459;51.828;7.872;2022-08-19T10:03:20;6.63;;;3.90;;
66601;SDS011;53459;51.828;7.872;2022-08-19T10:06:39;6.82;;;3.70;;
66601;SDS011;53459;51.828;7.872;2022-08-19T10:09:07;7.67;;;4.47;;
66601;SDS011;53459;51.828;7.872;2022-08-19T10:11:36;8.10;;;4.70;;
66601;SDS011;53459;51.828;7.872;2022-08-19T10:14:05;8.02;;;4.60;;
66601;SDS011;53459;51.828;7.872;2022-08-19T10:16:32;7.60;;;4.30;;
66601;SDS011;53459;51.828;7.872;2022-08-19T10:18:58;8.37;;;4.70;;
66601;SDS011;53459;51.828;7.872;2022-08-19T10:21:32;7.15;;;4.05;;
66601;SDS011;53459;51.828;7.872;2022-08-19T10:24:24;6.97;;;4.05;;
66601;SDS011;53459;51.828;7.872;2022-08-19T10:26:50;8.93;;;4.10;;
66601;SDS011;53459;51.828;7.872;2022-08-19T10:29:16;8.40;;;5.57;;
66601;SDS011;53459;51.828;7.872;2022-08-19T10:31:42;7.18;;;4.60;;
66601;SDS011;53459;51.828;7.872;2022-08-19T10:34:08;7.97;;;4.57;;
66601;SDS011;53459;51.828;7.872;2022-08-19T10:36:35;7.37;;;4.50;;
66601;SDS011;53459;51.828;7.872;2022-08-19T10:39:07;9.23;;;5.43;;
66601;SDS011;53459;51.828;7.872;2022-08-19T10:41:35;7.82;;;4.57;;
66601;SDS011;53459;51.828;7.872;2022-08-19T10:44:05;9.60;;;5.55;;
66601;SDS011;53459;51.828;7.872;2022-08-19T10:46:35;8.82;;;5.15;;
66601;SDS011;53459;51.828;7.872;2022-08-19T10:49:04;8.70;;;5.50;;
66601;SDS011;53459;51.828;7.872;2022-08-19T10:51:31;8.10;;;4.95;;
66601;SDS011;53459;51.828;7.872;2022-08-19T10:54:16;9.10;;;4.82;;
66601;SDS011;53459;51.828;7.872;2022-08-19T10:56:42;7.85;;;4.20;;
66601;SDS011;53459;51.828;7.872;2022-08-19T10:59:24;4.97;;;2.85;;
66601;SDS011;53459;51.828;7.872;2022-08-19T11:01:52;5.43;;;3.30;;
66601;SDS011;53459;51.828;7.872;2022-08-19T11:04:20;7.60;;;3.43;;
66601;SDS011;53459;51.828;7.872;2022-08-19T11:06:47;5.50;;;2.97;;
66601;SDS011;53459;51.828;7.872;2022-08-19T11:09:15;6.50;;;3.47;;
66601;SDS011;53459;51.828;7.872;2022-08-19T11:11:45;7.55;;;3.45;;
66601;SDS011;53459;51.828;7.872;2022-08-19T11:14:13;7.05;;;3.60;;
66601;SDS011;53459;51.828;7.872;2022-08-19T11:16:40;5.85;;;3.47;;
66601;SDS011;53459;51.828;7.872;2022-08-19T11:19:08;7.40;;;3.50;;
66601;SDS011;53459;51.828;7.872;2022-08-19T11:21:38;6.47;;;3.38;;
66601;SDS011;53459;51.828;7.872;2022-08-19T11:24:29;6.53;;;3.30;;
66601;SDS011;53459;51.828;7.872;2022-08-19T11:27:01;6.10;;;3.22;;
66601;SDS011;53459;51.828;7.872;2022-08-19T11:29:31;6.35;;;3.00;;
66601;SDS011;53459;51.828;7.872;2022-08-19T11:31:59;6.28;;;3.63;;
66601;SDS011;53459;51.828;7.872;2022-08-19T11:34:28;5.63;;;3.33;;
66601;SDS011;53459;51.828;7.872;2022-08-19T11:38:16;6.82;;;3.63;;
66601;SDS011;53459;51.828;7.872;2022-08-19T11:40:41;6.05;;;3.50;;
66601;SDS011;53459;51.828;7.872;2022-08-19T11:43:50;6.57;;;3.78;;
66601;SDS011;53459;51.828;7.872;2022-08-19T11:46:19;5.70;;;3.53;;
66601;SDS011;53459;51.828;7.872;2022-08-19T11:48:46;7.37;;;4.00;;
66601;SDS011;53459;51.828;7.872;2022-08-19T11:53:40;7.95;;;3.78;;
66601;SDS011;53459;51.828;7.872;2022-08-19T11:56:07;6.72;;;3.70;;
66601;SDS011;53459;51.828;7.872;2022-08-19T12:00:57;5.95;;;3.35;;
66601;SDS011;53459;51.828;7.872;2022-08-19T12:03:24;7.50;;;3.90;;
66601;SDS011;53459;51.828;7.872;2022-08-19T12:05:49;6.32;;;3.10;;
66601;SDS011;53459;51.828;7.872;2022-08-19T12:08:59;6.95;;;3.10;;
66601;SDS011;53459;51.828;7.872;2022-08-19T12:11:28;5.95;;;3.30;;
66601;SDS011;53459;51.828;7.872;2022-08-19T12:13:53;6.90;;;3.47;;
66601;SDS011;53459;51.828;7.872;2022-08-19T12:16:25;7.20;;;3.40;;
66601;SDS011;53459;51.828;7.872;2022-08-19T12:18:52;5.70;;;3.30;;
66601;SDS011;53459;51.828;7.872;2022-08-19T12:22:12;5.53;;;3.30;;
66601;SDS011;53459;51.828;7.872;2022-08-19T12:24:38;8.48;;;3.35;;
66601;SDS011;53459;51.828;7.872;2022-08-19T12:27:03;5.53;;;3.20;;
66601;SDS011;53459;51.828;7.872;2022-08-19T12:29:29;7.53;;;3.38;;
66601;SDS011;53459;51.828;7.872;2022-08-19T12:33:58;6.65;;;3.75;;
66601;SDS011;53459;51.828;7.872;2022-08-19T12:36:24;9.13;;;3.30;;
66601;SDS011;53459;51.828;7.872;2022-08-19T12:38:50;6.03;;;3.33;;
66601;SDS011;53459;51.828;7.872;2022-08-19T12:41:16;6.80;;;3.30;;
66601;SDS011;53459;51.828;7.872;2022-08-19T12:43:43;5.70;;;3.60;;
66601;SDS011;53459;51.828;7.872;2022-08-19T12:46:09;6.63;;;3.70;;
66601;SDS011;53459;51.828;7.872;2022-08-19T12:48:35;6.18;;;4.20;;
66601;SDS011;53459;51.828;7.872;2022-08-19T12:51:09;7.68;;;4.53;;
66601;SDS011;53459;51.828;7.872;2022-08-19T12:53:37;10.38;;;4.80;;
66601;SDS011;53459;51.828;7.872;2022-08-19T12:56:03;6.65;;;3.97;;
66601;SDS011;53459;51.828;7.872;2022-08-19T12:58:29;6.40;;;4.07;;
66601;SDS011;53459;51.828;7.872;2022-08-19T13:00:54;6.20;;;3.87;;
66601;SDS011;53459;51.828;7.872;2022-08-19T13:04:17;7.80;;;4.40;;
66601;SDS011;53459;51.828;7.872;2022-08-19T13:06:43;7.78;;;5.10;;
66601;SDS011;53459;51.828;7.872;2022-08-19T13:09:09;8.73;;;5.40;;
66601;SDS011;53459;51.828;7.872;2022-08-19T13:11:36;9.15;;;5.40;;
66601;SDS011;53459;51.828;7.872;2022-08-19T13:14:03;10.43;;;5.60;;
66601;SDS011;53459;51.828;7.872;2022-08-19T13:16:29;10.07;;;6.40;;
66601;SDS011;53459;51.828;7.872;2022-08-19T13:18:55;11.15;;;6.25;;
66601;SDS011;53459;51.828;7.872;2022-08-19T13:21:23;12.27;;;7.00;;
66601;SDS011;53459;51.828;7.872;2022-08-19T13:23:51;9.70;;;6.17;;
66601;SDS011;53459;51.828;7.872;2022-08-19T13:26:18;7.80;;;5.40;;
66601;SDS011;53459;51.828;7.872;2022-08-19T13:28:44;9.27;;;5.55;;
66601;SDS011;53459;51.828;7.872;2022-08-19T13:31:30;7.53;;;4.97;;
66601;SDS011;53459;51.828;7.872;2022-08-19T13:34:16;8.30;;;4.80;;
66601;SDS011;53459;51.828;7.872;2022-08-19T13:36:43;8.05;;;4.65;;
66601;SDS011;53459;51.828;7.872;2022-08-19T13:39:09;7.97;;;5.00;;
66601;SDS011;53459;51.828;7.872;2022-08-19T13:41:35;7.40;;;4.73;;
66601;SDS011;53459;51.828;7.872;2022-08-19T13:46:07;7.70;;;5.03;;
66601;SDS011;53459;51.828;7.872;2022-08-19T13:48:34;7.00;;;4.82;;
66601;SDS011;53459;51.828;7.872;2022-08-19T13:51:00;7.60;;;4.75;;
66601;SDS011;53459;51.828;7.872;2022-08-19T13:53:26;7.63;;;4.53;;
66601;SDS011;53459;51.828;7.872;2022-08-19T13:55:51;8.20;;;4.70;;
66601;SDS011;53459;51.828;7.872;2022-08-19T14:00:07;7.05;;;3.95;;
66601;SDS011;53459;51.828;7.872;2022-08-19T14:02:35;7.88;;;4.20;;
66601;SDS011;53459;51.828;7.872;2022-08-19T14:05:03;7.00;;;4.13;;
66601;SDS011;53459;51.828;7.872;2022-08-19T14:07:30;5.88;;;3.70;;
66601;SDS011;53459;51.828;7.872;2022-08-19T14:09:55;7.40;;;4.40;;
66601;SDS011;53459;51.828;7.872;2022-08-19T14:12:21;7.63;;;4.10;;
66601;SDS011;53459;51.828;7.872;2022-08-19T14:15:52;6.97;;;4.20;;
66601;SDS011;53459;51.828;7.872;2022-08-19T14:18:18;6.07;;;4.10;;
66601;SDS011;53459;51.828;7.872;2022-08-19T14:24:13;6.00;;;3.90;;
66601;SDS011;53459;51.828;7.872;2022-08-19T14:26:39;8.03;;;4.40;;
66601;SDS011;53459;51.828;7.872;2022-08-19T14:29:04;7.57;;;4.17;;
66601;SDS011;53459;51.828;7.872;2022-08-19T14:31:30;6.20;;;4.20;;
66601;SDS011;53459;51.828;7.872;2022-08-19T14:35:07;6.50;;;4.10;;
66601;SDS011;53459;51.828;7.872;2022-08-19T14:37:33;7.00;;;3.95;;
66601;SDS011;53459;51.828;7.872;2022-08-19T14:39:59;6.00;;;4.00;;
66601;SDS011;53459;51.828;7.872;2022-08-19T14:43:18;6.90;;;4.10;;
66601;SDS011;53459;51.828;7.872;2022-08-19T14:46:33;6.68;;;4.30;;
66601;SDS011;53459;51.828;7.872;2022-08-19T14:51:24;6.82;;;4.15;;
66601;SDS011;53459;51.828;7.872;2022-08-19T14:54:11;7.32;;;4.40;;
66601;SDS011;53459;51.828;7.872;2022-08-19T14:56:37;7.05;;;4.70;;
66601;SDS011;53459;51.828;7.872;2022-08-19T15:01:10;9.25;;;4.78;;
66601;SDS011;53459;51.828;7.872;2022-08-19T15:05:09;8.43;;;4.60;;
66601;SDS011;53459;51.828;7.872;2022-08-19T15:07:36;7.70;;;5.20;;
66601;SDS011;53459;51.828;7.872;2022-08-19T15:10:04;7.33;;;4.80;;
66601;SDS011;53459;51.828;7.872;2022-08-19T15:12:32;7.93;;;4.72;;
66601;SDS011;53459;51.828;7.872;2022-08-19T15:14:59;7.65;;;4.95;;
66601;SDS011;53459;51.828;7.872;2022-08-19T15:17:25;8.75;;;4.85;;
66601;SDS011;53459;51.828;7.872;2022-08-19T15:20:02;6.88;;;4.43;;
66601;SDS011;53459;51.828;7.872;2022-08-19T15:22:29;7.95;;;4.95;;
66601;SDS011;53459;51.828;7.872;2022-08-19T15:24:54;8.03;;;4.90;;
66601;SDS011;53459;51.828;7.872;2022-08-19T15:27:21;7.70;;;4.72;;
66601;SDS011;53459;51.828;7.872;2022-08-19T15:31:19;7.05;;;4.50;;
66601;SDS011;53459;51.828;7.872;2022-08-19T15:33:47;7.77;;;4.40;;
66601;SDS011;53459;51.828;7.872;2022-08-19T15:36:37;8.57;;;4.90;;
66601;SDS011;53459;51.828;7.872;2022-08-19T15:39:03;7.65;;;5.00;;
66601;SDS011;53459;51.828;7.872;2022-08-19T15:41:30;8.45;;;4.82;;
66601;SDS011;53459;51.828;7.872;2022-08-19T15:44:21;8.95;;;5.30;;
66601;SDS011;53459;51.828;7.872;2022-08-19T15:46:46;8.23;;;5.00;;
66601;SDS011;53459;51.828;7.872;2022-08-19T15:49:46;8.32;;;5.05;;
66601;SDS011;53459;51.828;7.872;2022-08-19T15:52:12;6.70;;;4.50;;
66601;SDS011;53459;51.828;7.872;2022-08-19T15:54:38;8.37;;;4.97;;
66601;SDS011;53459;51.828;7.872;2022-08-19T15:57:03;10.02;;;4.70;;
66601;SDS011;53459;51.828;7.872;2022-08-19T15:59:47;7.70;;;4.60;;
66601;SDS011;53459;51.828;7.872;2022-08-19T16:02:31;7.72;;;4.60;;
66601;SDS011;53459;51.828;7.872;2022-08-19T16:07:36;8.20;;;4.40;;
66601;SDS011;53459;51.828;7.872;2022-08-19T16:10:03;6.72;;;4.30;;
66601;SDS011;53459;51.828;7.872;2022-08-19T16:13:37;7.68;;;4.45;;
66601;SDS011;53459;51.828;7.872;2022-08-19T16:16:04;7.70;;;4.70;;
66601;SDS011;53459;51.828;7.872;2022-08-19T16:18:30;7.97;;;4.40;;
66601;SDS011;53459;51.828;7.872;2022-08-19T16:21:02;6.85;;;4.50;;
66601;SDS011;53459;51.828;7.872;2022-08-19T16:23:30;8.52;;;4.43;;
66601;SDS011;53459;51.828;7.872;2022-08-19T16:25:56;9.63;;;4.32;;
66601;SDS011;53459;51.828;7.872;2022-08-19T16:32:02;8.25;;;4.53;;
66601;SDS011;53459;51.828;7.872;2022-08-19T16:34:29;7.28;;;4.60;;
66601;SDS011;53459;51.828;7.872;2022-08-19T16:36:55;10.30;;;4.68;;